Data at: 1018 UTC 25 Apr 2018

METAR for:KMNH (Mountain Pass Arpt, CO, US)
Text:KMNH 251012Z AUTO 30006KT 10SM OVC011 M02/M03 A3036 RMK AO2
Temperature: -2.0°C ( 28°F)
Dewpoint: -3.0°C ( 27°F) [RH = 93%]
Pressure (altimeter):30.36 inches Hg (1028.2 mb)
Winds:from the WNW (300 degrees) at 7 MPH (6 knots; 3.1 m/s)
Visibility:10 or more sm (16+ km)
Ceiling:1100 feet AGL
Clouds: overcast cloud deck at 1100 feet AGL
QC Flag:automated observation with no human augmentation
Text:KMNH 250950Z AUTO 32005KT 10SM OVC011 M02/M03 A3037 RMK AO2
Temperature: -2.0°C ( 28°F)
Dewpoint: -3.0°C ( 27°F) [RH = 93%]
Pressure (altimeter):30.37 inches Hg (1028.5 mb)
Winds:from the NW (320 degrees) at 6 MPH (5 knots; 2.6 m/s)
Visibility:10 or more sm (16+ km)
Ceiling:1100 feet AGL
Clouds: overcast cloud deck at 1100 feet AGL
QC Flag:automated observation with no human augmentation
Text:KMNH 250931Z AUTO 32004KT 10SM OVC013 M02/M03 A3037 RMK AO2
Temperature: -2.0°C ( 28°F)
Dewpoint: -3.0°C ( 27°F) [RH = 93%]
Pressure (altimeter):30.37 inches Hg (1028.5 mb)
Winds:from the NW (320 degrees) at 5 MPH (4 knots; 2.1 m/s)
Visibility:10 or more sm (16+ km)
Ceiling:1300 feet AGL
Clouds: overcast cloud deck at 1300 feet AGL
QC Flag:automated observation with no human augmentation
Text:KMNH 250911Z AUTO 31004KT 10SM OVC013 M02/M03 A3037 RMK AO2
Temperature: -2.0°C ( 28°F)
Dewpoint: -3.0°C ( 27°F) [RH = 93%]
Pressure (altimeter):30.37 inches Hg (1028.5 mb)
Winds:from the NW (310 degrees) at 5 MPH (4 knots; 2.1 m/s)
Visibility:10 or more sm (16+ km)
Ceiling:1300 feet AGL
Clouds: overcast cloud deck at 1300 feet AGL
QC Flag:automated observation with no human augmentation
Text:KMNH 250850Z AUTO 31005KT 10SM OVC013 M02/M03 A3037 RMK AO2
Temperature: -2.0°C ( 28°F)
Dewpoint: -3.0°C ( 27°F) [RH = 93%]
Pressure (altimeter):30.37 inches Hg (1028.5 mb)
Winds:from the NW (310 degrees) at 6 MPH (5 knots; 2.6 m/s)
Visibility:10 or more sm (16+ km)
Ceiling:1300 feet AGL
Clouds: overcast cloud deck at 1300 feet AGL
QC Flag:automated observation with no human augmentation
Text:KMNH 250831Z AUTO 29005KT 10SM OVC013 M02/M03 A3038 RMK AO2
Temperature: -2.0°C ( 28°F)
Dewpoint: -3.0°C ( 27°F) [RH = 93%]
Pressure (altimeter):30.38 inches Hg (1028.9 mb)
Winds:from the WNW (290 degrees) at 6 MPH (5 knots; 2.6 m/s)
Visibility:10 or more sm (16+ km)
Ceiling:1300 feet AGL
Clouds: overcast cloud deck at 1300 feet AGL
QC Flag:automated observation with no human augmentation
Text:KMNH 250808Z AUTO 31004KT 10SM OVC011 M02/M03 A3039 RMK AO2
Temperature: -2.0°C ( 28°F)
Dewpoint: -3.0°C ( 27°F) [RH = 93%]
Pressure (altimeter):30.39 inches Hg (1029.2 mb)
Winds:from the NW (310 degrees) at 5 MPH (4 knots; 2.1 m/s)
Visibility:10 or more sm (16+ km)
Ceiling:1100 feet AGL
Clouds: overcast cloud deck at 1100 feet AGL
QC Flag:automated observation with no human augmentation
Text:KMNH 250753Z AUTO 33003KT 10SM OVC009 M02/M03 A3040 RMK AO2
Temperature: -2.0°C ( 28°F)
Dewpoint: -3.0°C ( 27°F) [RH = 93%]
Pressure (altimeter):30.40 inches Hg (1029.5 mb)
Winds:from the NNW (330 degrees) at 3 MPH (3 knots; 1.5 m/s)
Visibility:10 or more sm (16+ km)
Ceiling:900 feet AGL
Clouds: overcast cloud deck at 900 feet AGL
QC Flag:automated observation with no human augmentation
Text:KMNH 250731Z AUTO 35005KT 10SM OVC009 M02/M03 A3041 RMK AO2
Temperature: -2.0°C ( 28°F)
Dewpoint: -3.0°C ( 27°F) [RH = 93%]
Pressure (altimeter):30.41 inches Hg (1029.9 mb)
Winds:from the N (350 degrees) at 6 MPH (5 knots; 2.6 m/s)
Visibility:10 or more sm (16+ km)
Ceiling:900 feet AGL
Clouds: overcast cloud deck at 900 feet AGL
QC Flag:automated observation with no human augmentation
Text:KMNH 250712Z AUTO 35004KT 10SM OVC007 M02/M03 A3041 RMK AO2
Temperature: -2.0°C ( 28°F)
Dewpoint: -3.0°C ( 27°F) [RH = 93%]
Pressure (altimeter):30.41 inches Hg (1029.9 mb)
Winds:from the N (350 degrees) at 5 MPH (4 knots; 2.1 m/s)
Visibility:10 or more sm (16+ km)
Ceiling:700 feet AGL
Clouds: overcast cloud deck at 700 feet AGL
QC Flag:automated observation with no human augmentation
Text:KMNH 250653Z AUTO 01005KT 7SM BKN003 OVC007 M02/M02 A3042 RMK AO2
Temperature: -2.0°C ( 28°F)
Dewpoint: -2.0°C ( 28°F) [RH = 100%]
Pressure (altimeter):30.42 inches Hg (1030.2 mb)
Winds:from the N (10 degrees) at 6 MPH (5 knots; 2.6 m/s)
Visibility: 7 sm ( 11 km)
Ceiling:300 feet AGL
Clouds: broken clouds at 300 feet AGL, overcast cloud deck at 700 feet AGL
QC Flag:automated observation with no human augmentation
Text:KMNH 250630Z AUTO 33005KT 4SM BR BKN003 OVC007 M02/M02 A3042 RMK AO2
Temperature: -2.0°C ( 28°F)
Dewpoint: -2.0°C ( 28°F) [RH = 100%]
Pressure (altimeter):30.42 inches Hg (1030.2 mb)
Winds:from the NNW (330 degrees) at 6 MPH (5 knots; 2.6 m/s)
Visibility: 4 sm ( 6 km)
Ceiling:300 feet AGL
Clouds: broken clouds at 300 feet AGL, overcast cloud deck at 700 feet AGL
Weather:BR (mist)
QC Flag:automated observation with no human augmentation
Text:KMNH 250612Z AUTO 33005KT 5SM BR OVC005 M02/M02 A3043 RMK AO2
Temperature: -2.0°C ( 28°F)
Dewpoint: -2.0°C ( 28°F) [RH = 100%]
Pressure (altimeter):30.43 inches Hg (1030.6 mb)
Winds:from the NNW (330 degrees) at 6 MPH (5 knots; 2.6 m/s)
Visibility: 5 sm ( 8 km)
Ceiling:500 feet AGL
Clouds: overcast cloud deck at 500 feet AGL
Weather:BR (mist)
QC Flag:automated observation with no human augmentation
Text:KMNH 250548Z AUTO 32007KT 7SM BKN002 OVC008 M02/M02 A3043 RMK AO2
Temperature: -2.0°C ( 28°F)
Dewpoint: -2.0°C ( 28°F) [RH = 100%]
Pressure (altimeter):30.43 inches Hg (1030.6 mb)
Winds:from the NW (320 degrees) at 8 MPH (7 knots; 3.6 m/s)
Visibility: 7 sm ( 11 km)
Ceiling:200 feet AGL
Clouds: broken clouds at 200 feet AGL, overcast cloud deck at 800 feet AGL
QC Flag:automated observation with no human augmentation
Text:KMNH 250526Z AUTO 34006KT 5SM BR BKN002 OVC008 M02/M02 A3043 RMK AO2
Temperature: -2.0°C ( 28°F)
Dewpoint: -2.0°C ( 28°F) [RH = 100%]
Pressure (altimeter):30.43 inches Hg (1030.6 mb)
Winds:from the NNW (340 degrees) at 7 MPH (6 knots; 3.1 m/s)
Visibility: 5 sm ( 8 km)
Ceiling:200 feet AGL
Clouds: broken clouds at 200 feet AGL, overcast cloud deck at 800 feet AGL
Weather:BR (mist)
QC Flag:automated observation with no human augmentation
Text:KMNH 250513Z AUTO 33007KT 4SM BR OVC002 M02/M02 A3043 RMK AO2
Temperature: -2.0°C ( 28°F)
Dewpoint: -2.0°C ( 28°F) [RH = 100%]
Pressure (altimeter):30.43 inches Hg (1030.6 mb)
Winds:from the NNW (330 degrees) at 8 MPH (7 knots; 3.6 m/s)
Visibility: 4 sm ( 6 km)
Ceiling:200 feet AGL
Clouds: overcast cloud deck at 200 feet AGL
Weather:BR (mist)
QC Flag:automated observation with no human augmentation
Text:KMNH 250453Z AUTO 33007KT 4SM BR BKN002 OVC007 M01/M02 A3043 RMK AO2
Temperature: -1.0°C ( 30°F)
Dewpoint: -2.0°C ( 28°F) [RH = 93%]
Pressure (altimeter):30.43 inches Hg (1030.6 mb)
Winds:from the NNW (330 degrees) at 8 MPH (7 knots; 3.6 m/s)
Visibility: 4 sm ( 6 km)
Ceiling:200 feet AGL
Clouds: broken clouds at 200 feet AGL, overcast cloud deck at 700 feet AGL
Weather:BR (mist)
QC Flag:automated observation with no human augmentation
Text:KMNH 250429Z AUTO 33006KT 1SM -SN OVC002 M01/M02 A3043 RMK AO2
Temperature: -1.0°C ( 30°F)
Dewpoint: -2.0°C ( 28°F) [RH = 93%]
Pressure (altimeter):30.43 inches Hg (1030.6 mb)
Winds:from the NNW (330 degrees) at 7 MPH (6 knots; 3.1 m/s)
Visibility: 1.00 sm ( 1.61 km)
Ceiling:200 feet AGL
Clouds: overcast cloud deck at 200 feet AGL
Weather:-SN (light snow)
QC Flag:automated observation with no human augmentation
Text:KMNH 250411Z AUTO 32006KT 5SM BR BKN005 OVC008 M01/M02 A3044 RMK AO2
Temperature: -1.0°C ( 30°F)
Dewpoint: -2.0°C ( 28°F) [RH = 93%]
Pressure (altimeter):30.44 inches Hg (1030.9 mb)
Winds:from the NW (320 degrees) at 7 MPH (6 knots; 3.1 m/s)
Visibility: 5 sm ( 8 km)
Ceiling:500 feet AGL
Clouds: broken clouds at 500 feet AGL, overcast cloud deck at 800 feet AGL
Weather:BR (mist)
QC Flag:automated observation with no human augmentation
Text:KMNH 250348Z AUTO 33007KT 7SM BKN003 OVC008 M01/M02 A3043 RMK AO2
Temperature: -1.0°C ( 30°F)
Dewpoint: -2.0°C ( 28°F) [RH = 93%]
Pressure (altimeter):30.43 inches Hg (1030.6 mb)
Winds:from the NNW (330 degrees) at 8 MPH (7 knots; 3.6 m/s)
Visibility: 7 sm ( 11 km)
Ceiling:300 feet AGL
Clouds: broken clouds at 300 feet AGL, overcast cloud deck at 800 feet AGL
QC Flag:automated observation with no human augmentation
Text:KMNH 250330Z AUTO 33006KT 7SM BKN003 OVC008 M01/M02 A3043 RMK AO2
Temperature: -1.0°C ( 30°F)
Dewpoint: -2.0°C ( 28°F) [RH = 93%]
Pressure (altimeter):30.43 inches Hg (1030.6 mb)
Winds:from the NNW (330 degrees) at 7 MPH (6 knots; 3.1 m/s)
Visibility: 7 sm ( 11 km)
Ceiling:300 feet AGL
Clouds: broken clouds at 300 feet AGL, overcast cloud deck at 800 feet AGL
QC Flag:automated observation with no human augmentation
Text:KMNH 250311Z AUTO 33007KT 5SM BR BKN002 OVC008 M01/M02 A3042 RMK AO2
Temperature: -1.0°C ( 30°F)
Dewpoint: -2.0°C ( 28°F) [RH = 93%]
Pressure (altimeter):30.42 inches Hg (1030.2 mb)
Winds:from the NNW (330 degrees) at 8 MPH (7 knots; 3.6 m/s)
Visibility: 5 sm ( 8 km)
Ceiling:200 feet AGL
Clouds: broken clouds at 200 feet AGL, overcast cloud deck at 800 feet AGL
Weather:BR (mist)
QC Flag:automated observation with no human augmentation
Text:KMNH 250253Z AUTO 33008KT 5SM -SN BKN002 OVC008 M01/M02 A3042 RMK AO2 P0001
Temperature: -1.0°C ( 30°F)
Dewpoint: -2.0°C ( 28°F) [RH = 93%]
Pressure (altimeter):30.42 inches Hg (1030.2 mb)
Winds:from the NNW (330 degrees) at 9 MPH (8 knots; 4.1 m/s)
Visibility: 5 sm ( 8 km)
Ceiling:200 feet AGL
Clouds: broken clouds at 200 feet AGL, overcast cloud deck at 800 feet AGL
Weather:-SN (light snow)
QC Flag:automated observation with no human augmentation
Text:KMNH 250229Z AUTO 32007KT 4SM -SN SCT002 BKN008 OVC017 M01/M02 A3041 RMK AO2
Temperature: -1.0°C ( 30°F)
Dewpoint: -2.0°C ( 28°F) [RH = 93%]
Pressure (altimeter):30.41 inches Hg (1029.9 mb)
Winds:from the NW (320 degrees) at 8 MPH (7 knots; 3.6 m/s)
Visibility: 4 sm ( 6 km)
Ceiling:800 feet AGL
Clouds: scattered clouds at 200 feet AGL, broken clouds at 800 feet AGL, overcast cloud deck at 1700 feet AGL
Weather:-SN (light snow)
QC Flag:automated observation with no human augmentation
Text:KMNH 250211Z AUTO 32007KT 3SM -SN SCT004 OVC008 M01/M02 A3040 RMK AO2
Temperature: -1.0°C ( 30°F)
Dewpoint: -2.0°C ( 28°F) [RH = 93%]
Pressure (altimeter):30.40 inches Hg (1029.5 mb)
Winds:from the NW (320 degrees) at 8 MPH (7 knots; 3.6 m/s)
Visibility: 3 sm ( 5 km)
Ceiling:800 feet AGL
Clouds: scattered clouds at 400 feet AGL, overcast cloud deck at 800 feet AGL
Weather:-SN (light snow)
QC Flag:automated observation with no human augmentation
Text:KMNH 250151Z AUTO 32009KT 2SM -SN BKN003 OVC008 M01/M02 A3040 RMK AO2
Temperature: -1.0°C ( 30°F)
Dewpoint: -2.0°C ( 28°F) [RH = 93%]
Pressure (altimeter):30.40 inches Hg (1029.5 mb)
Winds:from the NW (320 degrees) at 10 MPH (9 knots; 4.6 m/s)
Visibility: 2.00 sm ( 3.22 km)
Ceiling:300 feet AGL
Clouds: broken clouds at 300 feet AGL, overcast cloud deck at 800 feet AGL
Weather:-SN (light snow)
QC Flag:automated observation with no human augmentation
Text:KMNH 250130Z AUTO 31008KT 1 1/4SM -SN OVC003 M01/M02 A3040 RMK AO2
Temperature: -1.0°C ( 30°F)
Dewpoint: -2.0°C ( 28°F) [RH = 93%]
Pressure (altimeter):30.40 inches Hg (1029.5 mb)
Winds:from the NW (310 degrees) at 9 MPH (8 knots; 4.1 m/s)
Visibility: 1.25 sm ( 2.01 km)
Ceiling:300 feet AGL
Clouds: overcast cloud deck at 300 feet AGL
Weather:-SN (light snow)
QC Flag:automated observation with no human augmentation
Text:KMNH 250113Z AUTO 31009KT 1 3/4SM -SN OVC003 M01/M02 A3040 RMK AO2
Temperature: -1.0°C ( 30°F)
Dewpoint: -2.0°C ( 28°F) [RH = 93%]
Pressure (altimeter):30.40 inches Hg (1029.5 mb)
Winds:from the NW (310 degrees) at 10 MPH (9 knots; 4.6 m/s)
Visibility: 1.75 sm ( 2.82 km)
Ceiling:300 feet AGL
Clouds: overcast cloud deck at 300 feet AGL
Weather:-SN (light snow)
QC Flag:automated observation with no human augmentation
Text:KMNH 250053Z AUTO 31007KT 1/2SM SN OVC003 M01/M02 A3039 RMK AO2
Temperature: -1.0°C ( 30°F)
Dewpoint: -2.0°C ( 28°F) [RH = 93%]
Pressure (altimeter):30.39 inches Hg (1029.2 mb)
Winds:from the NW (310 degrees) at 8 MPH (7 knots; 3.6 m/s)
Visibility: 0.50 sm ( 0.80 km)
Ceiling:300 feet AGL
Clouds: overcast cloud deck at 300 feet AGL
Weather:SN (moderate snow)
QC Flag:automated observation with no human augmentation
Text:KMNH 250027Z AUTO 32009KT 1SM -SN OVC005 M01/M02 A3038 RMK AO2
Temperature: -1.0°C ( 30°F)
Dewpoint: -2.0°C ( 28°F) [RH = 93%]
Pressure (altimeter):30.38 inches Hg (1028.9 mb)
Winds:from the NW (320 degrees) at 10 MPH (9 knots; 4.6 m/s)
Visibility: 1.00 sm ( 1.61 km)
Ceiling:500 feet AGL
Clouds: overcast cloud deck at 500 feet AGL
Weather:-SN (light snow)
QC Flag:automated observation with no human augmentation
Text:KMNH 250008Z AUTO 34009KT 1 1/2SM -SN BKN005 OVC008 M01/M02 A3037 RMK AO2
Temperature: -1.0°C ( 30°F)
Dewpoint: -2.0°C ( 28°F) [RH = 93%]
Pressure (altimeter):30.37 inches Hg (1028.5 mb)
Winds:from the NNW (340 degrees) at 10 MPH (9 knots; 4.6 m/s)
Visibility: 1.50 sm ( 2.41 km)
Ceiling:500 feet AGL
Clouds: broken clouds at 500 feet AGL, overcast cloud deck at 800 feet AGL
Weather:-SN (light snow)
QC Flag:automated observation with no human augmentation
Text:KMNH 242353Z AUTO 36009KT 1SM -SN OVC005 M01/M02 A3038 RMK AO2 P0001
Temperature: -1.0°C ( 30°F)
Dewpoint: -2.0°C ( 28°F) [RH = 93%]
Pressure (altimeter):30.38 inches Hg (1028.9 mb)
Winds:from the N (360 degrees) at 10 MPH (9 knots; 4.6 m/s)
Visibility: 1.00 sm ( 1.61 km)
Ceiling:500 feet AGL
Clouds: overcast cloud deck at 500 feet AGL
Weather:-SN (light snow)
QC Flag:automated observation with no human augmentation
Text:KMNH 242329Z AUTO 34010KT 1/2SM -SN OVC003 M01/M02 A3038 RMK AO2
Temperature: -1.0°C ( 30°F)
Dewpoint: -2.0°C ( 28°F) [RH = 93%]
Pressure (altimeter):30.38 inches Hg (1028.9 mb)
Winds:from the NNW (340 degrees) at 12 MPH (10 knots; 5.1 m/s)
Visibility: 0.50 sm ( 0.80 km)
Ceiling:300 feet AGL
Clouds: overcast cloud deck at 300 feet AGL
Weather:-SN (light snow)
QC Flag:automated observation with no human augmentation
Text:KMNH 242312Z AUTO 36007KT 1 1/4SM -SN OVC005 M01/M02 A3037 RMK AO2
Temperature: -1.0°C ( 30°F)
Dewpoint: -2.0°C ( 28°F) [RH = 93%]
Pressure (altimeter):30.37 inches Hg (1028.5 mb)
Winds:from the N (360 degrees) at 8 MPH (7 knots; 3.6 m/s)
Visibility: 1.25 sm ( 2.01 km)
Ceiling:500 feet AGL
Clouds: overcast cloud deck at 500 feet AGL
Weather:-SN (light snow)
QC Flag:automated observation with no human augmentation
Text:KMNH 242248Z AUTO 36009KT 3SM -SN BKN007 OVC012 00/M01 A3037 RMK AO2
Temperature: 0.0°C ( 32°F)
Dewpoint: -1.0°C ( 30°F) [RH = 93%]
Pressure (altimeter):30.37 inches Hg (1028.5 mb)
Winds:from the N (360 degrees) at 10 MPH (9 knots; 4.6 m/s)
Visibility: 3 sm ( 5 km)
Ceiling:700 feet AGL
Clouds: broken clouds at 700 feet AGL, overcast cloud deck at 1200 feet AGL
Weather:-SN (light snow)
QC Flag:automated observation with no human augmentation
Text:KMNH 242230Z AUTO 35012KT 3SM -SN BKN005 BKN012 OVC026 00/M01 A3037 RMK AO2
Temperature: 0.0°C ( 32°F)
Dewpoint: -1.0°C ( 30°F) [RH = 93%]
Pressure (altimeter):30.37 inches Hg (1028.5 mb)
Winds:from the N (350 degrees) at 14 MPH (12 knots; 6.2 m/s)
Visibility: 3 sm ( 5 km)
Ceiling:500 feet AGL
Clouds: broken clouds at 500 feet AGL, broken clouds at 1200 feet AGL, overcast cloud deck at 2600 feet AGL
Weather:-SN (light snow)
QC Flag:automated observation with no human augmentation
Text:KMNH 242212Z AUTO 36010KT 7SM -SN SCT008 BKN014 OVC020 00/M02 A3037 RMK AO2
Temperature: 0.0°C ( 32°F)
Dewpoint: -2.0°C ( 28°F) [RH = 86%]
Pressure (altimeter):30.37 inches Hg (1028.5 mb)
Winds:from the N (360 degrees) at 12 MPH (10 knots; 5.1 m/s)
Visibility: 7 sm ( 11 km)
Ceiling:1400 feet AGL
Clouds: scattered clouds at 800 feet AGL, broken clouds at 1400 feet AGL, overcast cloud deck at 2000 feet AGL
Weather:-SN (light snow)
QC Flag:automated observation with no human augmentation
Text:KMNH 242148Z AUTO 36010KT 10SM SCT010 OVC015 M01/M02 A3038 RMK AO2
Temperature: -1.0°C ( 30°F)
Dewpoint: -2.0°C ( 28°F) [RH = 93%]
Pressure (altimeter):30.38 inches Hg (1028.9 mb)
Winds:from the N (360 degrees) at 12 MPH (10 knots; 5.1 m/s)
Visibility:10 or more sm (16+ km)
Ceiling:1500 feet AGL
Clouds: scattered clouds at 1000 feet AGL, overcast cloud deck at 1500 feet AGL
QC Flag:automated observation with no human augmentation
Text:KMNH 242129Z AUTO 36009KT 10SM BKN011 BKN017 OVC022 00/M02 A3038 RMK AO2
Temperature: 0.0°C ( 32°F)
Dewpoint: -2.0°C ( 28°F) [RH = 86%]
Pressure (altimeter):30.38 inches Hg (1028.9 mb)
Winds:from the N (360 degrees) at 10 MPH (9 knots; 4.6 m/s)
Visibility:10 or more sm (16+ km)
Ceiling:1100 feet AGL
Clouds: broken clouds at 1100 feet AGL, broken clouds at 1700 feet AGL, overcast cloud deck at 2200 feet AGL
QC Flag:automated observation with no human augmentation
Text:KMNH 242109Z AUTO 36013KT 10SM SCT009 BKN013 OVC030 00/M01 A3038 RMK AO2
Temperature: 0.0°C ( 32°F)
Dewpoint: -1.0°C ( 30°F) [RH = 93%]
Pressure (altimeter):30.38 inches Hg (1028.9 mb)
Winds:from the N (360 degrees) at 15 MPH (13 knots; 6.7 m/s)
Visibility:10 or more sm (16+ km)
Ceiling:1300 feet AGL
Clouds: scattered clouds at 900 feet AGL, broken clouds at 1300 feet AGL, overcast cloud deck at 3000 feet AGL
QC Flag:automated observation with no human augmentation
Text:KMNH 242048Z AUTO 01010KT 7SM -SN BKN009 BKN018 OVC029 M01/M02 A3038 RMK AO2
Temperature: -1.0°C ( 30°F)
Dewpoint: -2.0°C ( 28°F) [RH = 93%]
Pressure (altimeter):30.38 inches Hg (1028.9 mb)
Winds:from the N (10 degrees) at 12 MPH (10 knots; 5.1 m/s)
Visibility: 7 sm ( 11 km)
Ceiling:900 feet AGL
Clouds: broken clouds at 900 feet AGL, broken clouds at 1800 feet AGL, overcast cloud deck at 2900 feet AGL
Weather:-SN (light snow)
QC Flag:automated observation with no human augmentation
Text:KMNH 242031Z AUTO 36010G14KT 2 1/2SM -SN SCT007 BKN012 OVC017 M01/M02 A3040 RMK AO2
Temperature: -1.0°C ( 30°F)
Dewpoint: -2.0°C ( 28°F) [RH = 93%]
Pressure (altimeter):30.40 inches Hg (1029.5 mb)
Winds:from the N (360 degrees) at 12 MPH (10 knots; 5.1 m/s) gusting to 16 MPH (14 knots; 7.2 m/s)
Visibility: 2.50 sm ( 4.02 km)
Ceiling:1200 feet AGL
Clouds: scattered clouds at 700 feet AGL, broken clouds at 1200 feet AGL, overcast cloud deck at 1700 feet AGL
Weather:-SN (light snow)
QC Flag:automated observation with no human augmentation
Text:KMNH 242012Z AUTO 36010G16KT 10SM BKN008 BKN015 OVC020 M01/M02 A3039 RMK AO2
Temperature: -1.0°C ( 30°F)
Dewpoint: -2.0°C ( 28°F) [RH = 93%]
Pressure (altimeter):30.39 inches Hg (1029.2 mb)
Winds:from the N (360 degrees) at 12 MPH (10 knots; 5.1 m/s) gusting to 18 MPH (16 knots; 8.2 m/s)
Visibility:10 or more sm (16+ km)
Ceiling:800 feet AGL
Clouds: broken clouds at 800 feet AGL, broken clouds at 1500 feet AGL, overcast cloud deck at 2000 feet AGL
QC Flag:automated observation with no human augmentation
Text:KMNH 241949Z AUTO 36012G16KT 10SM OVC008 M01/M02 A3040 RMK AO2
Temperature: -1.0°C ( 30°F)
Dewpoint: -2.0°C ( 28°F) [RH = 93%]
Pressure (altimeter):30.40 inches Hg (1029.5 mb)
Winds:from the N (360 degrees) at 14 MPH (12 knots; 6.2 m/s) gusting to 18 MPH (16 knots; 8.2 m/s)
Visibility:10 or more sm (16+ km)
Ceiling:800 feet AGL
Clouds: overcast cloud deck at 800 feet AGL
QC Flag:automated observation with no human augmentation
Text:KMNH 241929Z AUTO 36012G17KT 10SM BKN008 OVC013 M02/M03 A3040 RMK AO2
Temperature: -2.0°C ( 28°F)
Dewpoint: -3.0°C ( 27°F) [RH = 93%]
Pressure (altimeter):30.40 inches Hg (1029.5 mb)
Winds:from the N (360 degrees) at 14 MPH (12 knots; 6.2 m/s) gusting to 20 MPH (17 knots; 8.7 m/s)
Visibility:10 or more sm (16+ km)
Ceiling:800 feet AGL
Clouds: broken clouds at 800 feet AGL, overcast cloud deck at 1300 feet AGL
QC Flag:automated observation with no human augmentation
Text:KMNH 241912Z AUTO 01011G18KT 10SM SCT008 BKN013 OVC019 M01/M03 A3039 RMK AO2
Temperature: -1.0°C ( 30°F)
Dewpoint: -3.0°C ( 27°F) [RH = 86%]
Pressure (altimeter):30.39 inches Hg (1029.2 mb)
Winds:from the N (10 degrees) at 13 MPH (11 knots; 5.7 m/s) gusting to 21 MPH (18 knots; 9.3 m/s)
Visibility:10 or more sm (16+ km)
Ceiling:1300 feet AGL
Clouds: scattered clouds at 800 feet AGL, broken clouds at 1300 feet AGL, overcast cloud deck at 1900 feet AGL
QC Flag:automated observation with no human augmentation
Text:KMNH 241850Z AUTO 36014G17KT 10SM BKN008 OVC013 M01/M03 A3040 RMK AO2
Temperature: -1.0°C ( 30°F)
Dewpoint: -3.0°C ( 27°F) [RH = 86%]
Pressure (altimeter):30.40 inches Hg (1029.5 mb)
Winds:from the N (360 degrees) at 16 MPH (14 knots; 7.2 m/s) gusting to 20 MPH (17 knots; 8.7 m/s)
Visibility:10 or more sm (16+ km)
Ceiling:800 feet AGL
Clouds: broken clouds at 800 feet AGL, overcast cloud deck at 1300 feet AGL
QC Flag:automated observation with no human augmentation
Text:KMNH 241830Z AUTO 01013KT 10SM OVC010 M01/M03 A3040 RMK AO2
Temperature: -1.0°C ( 30°F)
Dewpoint: -3.0°C ( 27°F) [RH = 86%]
Pressure (altimeter):30.40 inches Hg (1029.5 mb)
Winds:from the N (10 degrees) at 15 MPH (13 knots; 6.7 m/s)
Visibility:10 or more sm (16+ km)
Ceiling:1000 feet AGL
Clouds: overcast cloud deck at 1000 feet AGL
QC Flag:automated observation with no human augmentation
Text:KMNH 241812Z AUTO 35010KT 10SM SCT005 OVC012 M01/M02 A3040 RMK AO2
Temperature: -1.0°C ( 30°F)
Dewpoint: -2.0°C ( 28°F) [RH = 93%]
Pressure (altimeter):30.40 inches Hg (1029.5 mb)
Winds:from the N (350 degrees) at 12 MPH (10 knots; 5.1 m/s)
Visibility:10 or more sm (16+ km)
Ceiling:1200 feet AGL
Clouds: scattered clouds at 500 feet AGL, overcast cloud deck at 1200 feet AGL
QC Flag:automated observation with no human augmentation
Text:KMNH 241749Z AUTO 36012KT 10SM OVC007 M02/M02 A3040 RMK AO2
Temperature: -2.0°C ( 28°F)
Dewpoint: -2.0°C ( 28°F) [RH = 100%]
Pressure (altimeter):30.40 inches Hg (1029.5 mb)
Winds:from the N (360 degrees) at 14 MPH (12 knots; 6.2 m/s)
Visibility:10 or more sm (16+ km)
Ceiling:700 feet AGL
Clouds: overcast cloud deck at 700 feet AGL
QC Flag:automated observation with no human augmentation
Text:KMNH 241731Z AUTO 35014G18KT 10SM OVC007 M01/M02 A3040 RMK AO2
Temperature: -1.0°C ( 30°F)
Dewpoint: -2.0°C ( 28°F) [RH = 93%]
Pressure (altimeter):30.40 inches Hg (1029.5 mb)
Winds:from the N (350 degrees) at 16 MPH (14 knots; 7.2 m/s) gusting to 21 MPH (18 knots; 9.3 m/s)
Visibility:10 or more sm (16+ km)
Ceiling:700 feet AGL
Clouds: overcast cloud deck at 700 feet AGL
QC Flag:automated observation with no human augmentation
Text:KMNH 241713Z AUTO 10SM BKN007 OVC013 M02/M02 A3041 RMK AO2
Temperature: -2.0°C ( 28°F)
Dewpoint: -2.0°C ( 28°F) [RH = 100%]
Pressure (altimeter):30.41 inches Hg (1029.9 mb)
Visibility:10 or more sm (16+ km)
Ceiling:700 feet AGL
Clouds: broken clouds at 700 feet AGL, overcast cloud deck at 1300 feet AGL
QC Flag:automated observation with no human augmentation
Text:KMNH 241650Z AUTO 36011G17KT 7SM OVC007 M02/M02 A3041 RMK AO2
Temperature: -2.0°C ( 28°F)
Dewpoint: -2.0°C ( 28°F) [RH = 100%]
Pressure (altimeter):30.41 inches Hg (1029.9 mb)
Winds:from the N (360 degrees) at 13 MPH (11 knots; 5.7 m/s) gusting to 20 MPH (17 knots; 8.7 m/s)
Visibility: 7 sm ( 11 km)
Ceiling:700 feet AGL
Clouds: overcast cloud deck at 700 feet AGL
QC Flag:automated observation with no human augmentation
Text:KMNH 241632Z AUTO 36010G18KT 10SM OVC007 M02/M03 A3041 RMK AO2
Temperature: -2.0°C ( 28°F)
Dewpoint: -3.0°C ( 27°F) [RH = 93%]
Pressure (altimeter):30.41 inches Hg (1029.9 mb)
Winds:from the N (360 degrees) at 12 MPH (10 knots; 5.1 m/s) gusting to 21 MPH (18 knots; 9.3 m/s)
Visibility:10 or more sm (16+ km)
Ceiling:700 feet AGL
Clouds: overcast cloud deck at 700 feet AGL
QC Flag:automated observation with no human augmentation
Text:KMNH 241613Z AUTO 36010G17KT 10SM OVC007 M02/M03 A3041 RMK AO2
Temperature: -2.0°C ( 28°F)
Dewpoint: -3.0°C ( 27°F) [RH = 93%]
Pressure (altimeter):30.41 inches Hg (1029.9 mb)
Winds:from the N (360 degrees) at 12 MPH (10 knots; 5.1 m/s) gusting to 20 MPH (17 knots; 8.7 m/s)
Visibility:10 or more sm (16+ km)
Ceiling:700 feet AGL
Clouds: overcast cloud deck at 700 feet AGL
QC Flag:automated observation with no human augmentation
Text:KMNH 241548Z AUTO 36012G15KT 10SM OVC007 M02/M03 A3041 RMK AO2
Temperature: -2.0°C ( 28°F)
Dewpoint: -3.0°C ( 27°F) [RH = 93%]
Pressure (altimeter):30.41 inches Hg (1029.9 mb)
Winds:from the N (360 degrees) at 14 MPH (12 knots; 6.2 m/s) gusting to 17 MPH (15 knots; 7.7 m/s)
Visibility:10 or more sm (16+ km)
Ceiling:700 feet AGL
Clouds: overcast cloud deck at 700 feet AGL
QC Flag:automated observation with no human augmentation
Text:KMNH 241530Z AUTO 35009G16KT 10SM OVC007 M02/M03 A3041 RMK AO2
Temperature: -2.0°C ( 28°F)
Dewpoint: -3.0°C ( 27°F) [RH = 93%]
Pressure (altimeter):30.41 inches Hg (1029.9 mb)
Winds:from the N (350 degrees) at 10 MPH (9 knots; 4.6 m/s) gusting to 18 MPH (16 knots; 8.2 m/s)
Visibility:10 or more sm (16+ km)
Ceiling:700 feet AGL
Clouds: overcast cloud deck at 700 feet AGL
QC Flag:automated observation with no human augmentation
Text:KMNH 241513Z AUTO 35010KT 10SM OVC004 M02/M03 A3041 RMK AO2
Temperature: -2.0°C ( 28°F)
Dewpoint: -3.0°C ( 27°F) [RH = 93%]
Pressure (altimeter):30.41 inches Hg (1029.9 mb)
Winds:from the N (350 degrees) at 12 MPH (10 knots; 5.1 m/s)
Visibility:10 or more sm (16+ km)
Ceiling:400 feet AGL
Clouds: overcast cloud deck at 400 feet AGL
QC Flag:automated observation with no human augmentation
Text:KMNH 241452Z AUTO 35011G19KT 10SM BKN006 BKN010 OVC014 M02/M03 A3041 RMK AO2
Temperature: -2.0°C ( 28°F)
Dewpoint: -3.0°C ( 27°F) [RH = 93%]
Pressure (altimeter):30.41 inches Hg (1029.9 mb)
Winds:from the N (350 degrees) at 13 MPH (11 knots; 5.7 m/s) gusting to 22 MPH (19 knots; 9.8 m/s)
Visibility:10 or more sm (16+ km)
Ceiling:600 feet AGL
Clouds: broken clouds at 600 feet AGL, broken clouds at 1000 feet AGL, overcast cloud deck at 1400 feet AGL
QC Flag:automated observation with no human augmentation
Text:KMNH 241433Z AUTO 35013G17KT 5SM BR OVC006 M02/M02 A3040 RMK AO2
Temperature: -2.0°C ( 28°F)
Dewpoint: -2.0°C ( 28°F) [RH = 100%]
Pressure (altimeter):30.40 inches Hg (1029.5 mb)
Winds:from the N (350 degrees) at 15 MPH (13 knots; 6.7 m/s) gusting to 20 MPH (17 knots; 8.7 m/s)
Visibility: 5 sm ( 8 km)
Ceiling:600 feet AGL
Clouds: overcast cloud deck at 600 feet AGL
Weather:BR (mist)
QC Flag:automated observation with no human augmentation
Text:KMNH 241413Z AUTO 36008KT 10SM BKN005 OVC011 M02/M03 A3040 RMK AO2
Temperature: -2.0°C ( 28°F)
Dewpoint: -3.0°C ( 27°F) [RH = 93%]
Pressure (altimeter):30.40 inches Hg (1029.5 mb)
Winds:from the N (360 degrees) at 9 MPH (8 knots; 4.1 m/s)
Visibility:10 or more sm (16+ km)
Ceiling:500 feet AGL
Clouds: broken clouds at 500 feet AGL, overcast cloud deck at 1100 feet AGL
QC Flag:automated observation with no human augmentation
Text:KMNH 241350Z AUTO 36011KT 2 1/2SM -SN BKN005 OVC011 M02/M03 A3040 RMK AO2 P0001
Temperature: -2.0°C ( 28°F)
Dewpoint: -3.0°C ( 27°F) [RH = 93%]
Pressure (altimeter):30.40 inches Hg (1029.5 mb)
Winds:from the N (360 degrees) at 13 MPH (11 knots; 5.7 m/s)
Visibility: 2.50 sm ( 4.02 km)
Ceiling:500 feet AGL
Clouds: broken clouds at 500 feet AGL, overcast cloud deck at 1100 feet AGL
Weather:-SN (light snow)
QC Flag:automated observation with no human augmentation
Text:KMNH 241333Z AUTO 35009KT 5SM -SN BKN005 OVC011 M02/M03 A3040 RMK AO2 P0001
Temperature: -2.0°C ( 28°F)
Dewpoint: -3.0°C ( 27°F) [RH = 93%]
Pressure (altimeter):30.40 inches Hg (1029.5 mb)
Winds:from the N (350 degrees) at 10 MPH (9 knots; 4.6 m/s)
Visibility: 5 sm ( 8 km)
Ceiling:500 feet AGL
Clouds: broken clouds at 500 feet AGL, overcast cloud deck at 1100 feet AGL
Weather:-SN (light snow)
QC Flag:automated observation with no human augmentation
Text:KMNH 241312Z AUTO 36010G14KT 3SM -SN BKN005 BKN009 OVC014 M02/M02 A3038 RMK AO2
Temperature: -2.0°C ( 28°F)
Dewpoint: -2.0°C ( 28°F) [RH = 100%]
Pressure (altimeter):30.38 inches Hg (1028.9 mb)
Winds:from the N (360 degrees) at 12 MPH (10 knots; 5.1 m/s) gusting to 16 MPH (14 knots; 7.2 m/s)
Visibility: 3 sm ( 5 km)
Ceiling:500 feet AGL
Clouds: broken clouds at 500 feet AGL, broken clouds at 900 feet AGL, overcast cloud deck at 1400 feet AGL
Weather:-SN (light snow)
QC Flag:automated observation with no human augmentation
Text:KMNH 241248Z AUTO 36006KT 1 1/4SM -SN OVC003 M02/M02 A3039 RMK AO2
Temperature: -2.0°C ( 28°F)
Dewpoint: -2.0°C ( 28°F) [RH = 100%]
Pressure (altimeter):30.39 inches Hg (1029.2 mb)
Winds:from the N (360 degrees) at 7 MPH (6 knots; 3.1 m/s)
Visibility: 1.25 sm ( 2.01 km)
Ceiling:300 feet AGL
Clouds: overcast cloud deck at 300 feet AGL
Weather:-SN (light snow)
QC Flag:automated observation with no human augmentation
Text:KMNH 241230Z AUTO 02007KT 3SM -SN OVC001 M02/M02 A3036 RMK AO2
Temperature: -2.0°C ( 28°F)
Dewpoint: -2.0°C ( 28°F) [RH = 100%]
Pressure (altimeter):30.36 inches Hg (1028.2 mb)
Winds:from the NNE (20 degrees) at 8 MPH (7 knots; 3.6 m/s)
Visibility: 3 sm ( 5 km)
Ceiling:100 feet AGL
Clouds: overcast cloud deck at 100 feet AGL
Weather:-SN (light snow)
QC Flag:automated observation with no human augmentation
Text:KMNH 241212Z AUTO 36007KT 1 1/4SM -SN OVC001 M02/M02 A3036 RMK AO2
Temperature: -2.0°C ( 28°F)
Dewpoint: -2.0°C ( 28°F) [RH = 100%]
Pressure (altimeter):30.36 inches Hg (1028.2 mb)
Winds:from the N (360 degrees) at 8 MPH (7 knots; 3.6 m/s)
Visibility: 1.25 sm ( 2.01 km)
Ceiling:100 feet AGL
Clouds: overcast cloud deck at 100 feet AGL
Weather:-SN (light snow)
QC Flag:automated observation with no human augmentation
Text:KMNH 241150Z AUTO 36010G16KT 2 1/2SM BR OVC001 M02/M02 A3035 RMK AO2
Temperature: -2.0°C ( 28°F)
Dewpoint: -2.0°C ( 28°F) [RH = 100%]
Pressure (altimeter):30.35 inches Hg (1027.9 mb)
Winds:from the N (360 degrees) at 12 MPH (10 knots; 5.1 m/s) gusting to 18 MPH (16 knots; 8.2 m/s)
Visibility: 2.50 sm ( 4.02 km)
Ceiling:100 feet AGL
Clouds: overcast cloud deck at 100 feet AGL
Weather:BR (mist)
QC Flag:automated observation with no human augmentation
Text:KMNH 241133Z AUTO 36011G17KT 1 3/4SM BR OVC001 M02/M02 A3035 RMK AO2 VIS 1V3
Temperature: -2.0°C ( 28°F)
Dewpoint: -2.0°C ( 28°F) [RH = 100%]
Pressure (altimeter):30.35 inches Hg (1027.9 mb)
Winds:from the N (360 degrees) at 13 MPH (11 knots; 5.7 m/s) gusting to 20 MPH (17 knots; 8.7 m/s)
Visibility: 1.75 sm ( 2.82 km)
Ceiling:100 feet AGL
Clouds: overcast cloud deck at 100 feet AGL
Weather:BR (mist)
QC Flag:automated observation with no human augmentation
Text:KMNH 241113Z AUTO 36015G19KT 2SM BR OVC001 M02/M02 A3033 RMK AO2
Temperature: -2.0°C ( 28°F)
Dewpoint: -2.0°C ( 28°F) [RH = 100%]
Pressure (altimeter):30.33 inches Hg (1027.2 mb)
Winds:from the N (360 degrees) at 17 MPH (15 knots; 7.7 m/s) gusting to 22 MPH (19 knots; 9.8 m/s)
Visibility: 2.00 sm ( 3.22 km)
Ceiling:100 feet AGL
Clouds: overcast cloud deck at 100 feet AGL
Weather:BR (mist)
QC Flag:automated observation with no human augmentation
Text:KMNH 241049Z AUTO 35013G22KT 3/4SM BR OVC001 M02/M02 A3034 RMK AO2
Temperature: -2.0°C ( 28°F)
Dewpoint: -2.0°C ( 28°F) [RH = 100%]
Pressure (altimeter):30.34 inches Hg (1027.5 mb)
Winds:from the N (350 degrees) at 15 MPH (13 knots; 6.7 m/s) gusting to 25 MPH (22 knots; 11.3 m/s)
Visibility: 0.75 sm ( 1.21 km)
Ceiling:100 feet AGL
Clouds: overcast cloud deck at 100 feet AGL
Weather:BR (mist)
QC Flag:automated observation with no human augmentation
Text:KMNH 241030Z AUTO 34012KT 3/4SM BR OVC001 M01/M01 A3033 RMK AO2
Temperature: -1.0°C ( 30°F)
Dewpoint: -1.0°C ( 30°F) [RH = 100%]
Pressure (altimeter):30.33 inches Hg (1027.2 mb)
Winds:from the NNW (340 degrees) at 14 MPH (12 knots; 6.2 m/s)
Visibility: 0.75 sm ( 1.21 km)
Ceiling:100 feet AGL
Clouds: overcast cloud deck at 100 feet AGL
Weather:BR (mist)
QC Flag:automated observation with no human augmentation
Text:KMNH 241012Z AUTO 34013G18KT 3SM BR OVC003 M01/M01 A3032 RMK AO2
Temperature: -1.0°C ( 30°F)
Dewpoint: -1.0°C ( 30°F) [RH = 100%]
Pressure (altimeter):30.32 inches Hg (1026.8 mb)
Winds:from the NNW (340 degrees) at 15 MPH (13 knots; 6.7 m/s) gusting to 21 MPH (18 knots; 9.3 m/s)
Visibility: 3 sm ( 5 km)
Ceiling:300 feet AGL
Clouds: overcast cloud deck at 300 feet AGL
Weather:BR (mist)
QC Flag:automated observation with no human augmentation
Text:KMNH 240948Z AUTO 36011G17KT 3SM BR OVC003 M01/M01 A3032 RMK AO2
Temperature: -1.0°C ( 30°F)
Dewpoint: -1.0°C ( 30°F) [RH = 100%]
Pressure (altimeter):30.32 inches Hg (1026.8 mb)
Winds:from the N (360 degrees) at 13 MPH (11 knots; 5.7 m/s) gusting to 20 MPH (17 knots; 8.7 m/s)
Visibility: 3 sm ( 5 km)
Ceiling:300 feet AGL
Clouds: overcast cloud deck at 300 feet AGL
Weather:BR (mist)
QC Flag:automated observation with no human augmentation
Text:KMNH 240930Z AUTO 01009KT 4SM BR BKN003 OVC008 M01/M01 A3031 RMK AO2
Temperature: -1.0°C ( 30°F)
Dewpoint: -1.0°C ( 30°F) [RH = 100%]
Pressure (altimeter):30.31 inches Hg (1026.5 mb)
Winds:from the N (10 degrees) at 10 MPH (9 knots; 4.6 m/s)
Visibility: 4 sm ( 6 km)
Ceiling:300 feet AGL
Clouds: broken clouds at 300 feet AGL, overcast cloud deck at 800 feet AGL
Weather:BR (mist)
QC Flag:automated observation with no human augmentation
Text:KMNH 240913Z AUTO 36012G17KT 4SM BR BKN003 OVC007 M01/M01 A3031 RMK AO2
Temperature: -1.0°C ( 30°F)
Dewpoint: -1.0°C ( 30°F) [RH = 100%]
Pressure (altimeter):30.31 inches Hg (1026.5 mb)
Winds:from the N (360 degrees) at 14 MPH (12 knots; 6.2 m/s) gusting to 20 MPH (17 knots; 8.7 m/s)
Visibility: 4 sm ( 6 km)
Ceiling:300 feet AGL
Clouds: broken clouds at 300 feet AGL, overcast cloud deck at 700 feet AGL
Weather:BR (mist)
QC Flag:automated observation with no human augmentation
Text:KMNH 240847Z AUTO 35012G17KT 5SM BR OVC003 00/00 A3031 RMK AO2
Temperature: 0.0°C ( 32°F)
Dewpoint: 0.0°C ( 32°F) [RH = 100%]
Pressure (altimeter):30.31 inches Hg (1026.5 mb)
Winds:from the N (350 degrees) at 14 MPH (12 knots; 6.2 m/s) gusting to 20 MPH (17 knots; 8.7 m/s)
Visibility: 5 sm ( 8 km)
Ceiling:300 feet AGL
Clouds: overcast cloud deck at 300 feet AGL
Weather:BR (mist)
QC Flag:automated observation with no human augmentation
Text:KMNH 240830Z AUTO 35013KT 1/2SM FG OVC001 00/00 A3031 RMK AO2
Temperature: 0.0°C ( 32°F)
Dewpoint: 0.0°C ( 32°F) [RH = 100%]
Pressure (altimeter):30.31 inches Hg (1026.5 mb)
Winds:from the N (350 degrees) at 15 MPH (13 knots; 6.7 m/s)
Visibility: 0.50 sm ( 0.80 km)
Ceiling:100 feet AGL
Clouds: overcast cloud deck at 100 feet AGL
Weather:FG (fog)
QC Flag:automated observation with no human augmentation
Text:KMNH 240811Z AUTO 34013G18KT 4SM BR OVC001 00/00 A3031 RMK AO2 LTG DSNT E
Temperature: 0.0°C ( 32°F)
Dewpoint: 0.0°C ( 32°F) [RH = 100%]
Pressure (altimeter):30.31 inches Hg (1026.5 mb)
Winds:from the NNW (340 degrees) at 15 MPH (13 knots; 6.7 m/s) gusting to 21 MPH (18 knots; 9.3 m/s)
Visibility: 4 sm ( 6 km)
Ceiling:100 feet AGL
Clouds: overcast cloud deck at 100 feet AGL
Weather:BR (mist)
QC Flag:automated observation with no human augmentation
Text:KMNH 240750Z AUTO 34015G19KT 1/4SM FG OVC001 00/00 A3032 RMK AO2
Temperature: 0.0°C ( 32°F)
Dewpoint: 0.0°C ( 32°F) [RH = 100%]
Pressure (altimeter):30.32 inches Hg (1026.8 mb)
Winds:from the NNW (340 degrees) at 17 MPH (15 knots; 7.7 m/s) gusting to 22 MPH (19 knots; 9.8 m/s)
Visibility: 0.25 sm ( 0.40 km)
Ceiling:100 feet AGL
Clouds: overcast cloud deck at 100 feet AGL
Weather:FG (fog)
QC Flag:automated observation with no human augmentation
Text:KMNH 240731Z AUTO 34014G18KT 7SM VCTS OVC001 00/00 A3032 RMK AO2 LTG DSNT NE AND E
Temperature: 0.0°C ( 32°F)
Dewpoint: 0.0°C ( 32°F) [RH = 100%]
Pressure (altimeter):30.32 inches Hg (1026.8 mb)
Winds:from the NNW (340 degrees) at 16 MPH (14 knots; 7.2 m/s) gusting to 21 MPH (18 knots; 9.3 m/s)
Visibility: 7 sm ( 11 km)
Ceiling:100 feet AGL
Clouds: overcast cloud deck at 100 feet AGL
Weather:VCTS (thunderstorm in vicinity)
QC Flag:automated observation with no human augmentation
Text:KMNH 240712Z AUTO 34015G19KT 1/2SM TS FG OVC001 00/00 A3031 RMK AO2 VIS 1/4V5 LTG DSNT E
Temperature: 0.0°C ( 32°F)
Dewpoint: 0.0°C ( 32°F) [RH = 100%]
Pressure (altimeter):30.31 inches Hg (1026.5 mb)
Winds:from the NNW (340 degrees) at 17 MPH (15 knots; 7.7 m/s) gusting to 22 MPH (19 knots; 9.8 m/s)
Visibility: 0.50 sm ( 0.80 km)
Ceiling:100 feet AGL
Clouds: overcast cloud deck at 100 feet AGL
Weather:TS FG (thunderstorm, fog)
QC Flag:automated observation with no human augmentation
Text:KMNH 240653Z AUTO 35011G17KT 10SM VCTS OVC001 00/00 A3030 RMK AO2 LTG DSNT E
Temperature: 0.0°C ( 32°F)
Dewpoint: 0.0°C ( 32°F) [RH = 100%]
Pressure (altimeter):30.30 inches Hg (1026.2 mb)
Winds:from the N (350 degrees) at 13 MPH (11 knots; 5.7 m/s) gusting to 20 MPH (17 knots; 8.7 m/s)
Visibility:10 or more sm (16+ km)
Ceiling:100 feet AGL
Clouds: overcast cloud deck at 100 feet AGL
Weather:VCTS (thunderstorm in vicinity)
QC Flag:automated observation with no human augmentation
Text:KMNH 240629Z AUTO 35012G20KT 2SM VCTS BR OVC001 01/01 A3029 RMK AO2 VIS 1/2V5 LTG DSNT E
Temperature: 1.0°C ( 34°F)
Dewpoint: 1.0°C ( 34°F) [RH = 100%]
Pressure (altimeter):30.29 inches Hg (1025.8 mb)
Winds:from the N (350 degrees) at 14 MPH (12 knots; 6.2 m/s) gusting to 23 MPH (20 knots; 10.3 m/s)
Visibility: 2.00 sm ( 3.22 km)
Ceiling:100 feet AGL
Clouds: overcast cloud deck at 100 feet AGL
Weather:VCTS BR (thunderstorm in vicinity, mist)
QC Flag:automated observation with no human augmentation
Text:KMNH 240612Z AUTO 35011G16KT 1/2SM FG OVC001 02/02 A3028 RMK AO2 LTG DSNT E
Temperature: 2.0°C ( 36°F)
Dewpoint: 2.0°C ( 36°F) [RH = 100%]
Pressure (altimeter):30.28 inches Hg (1025.5 mb)
Winds:from the N (350 degrees) at 13 MPH (11 knots; 5.7 m/s) gusting to 18 MPH (16 knots; 8.2 m/s)
Visibility: 0.50 sm ( 0.80 km)
Ceiling:100 feet AGL
Clouds: overcast cloud deck at 100 feet AGL
Weather:FG (fog)
QC Flag:automated observation with no human augmentation
Text:KMNH 240549Z AUTO 36015G22KT 1/2SM -RA OVC001 02/02 A3028 RMK AO2 LTG DSNT SE
Temperature: 2.0°C ( 36°F)
Dewpoint: 2.0°C ( 36°F) [RH = 100%]
Pressure (altimeter):30.28 inches Hg (1025.5 mb)
Winds:from the N (360 degrees) at 17 MPH (15 knots; 7.7 m/s) gusting to 25 MPH (22 knots; 11.3 m/s)
Visibility: 0.50 sm ( 0.80 km)
Ceiling:100 feet AGL
Clouds: overcast cloud deck at 100 feet AGL
Weather:-RA (light rain)
QC Flag:automated observation with no human augmentation
Text:KMNH 240530Z AUTO 34009G16KT 3/4SM BR OVC001 03/02 A3030 RMK AO2 LTG DSNT SE
Temperature: 3.0°C ( 37°F)
Dewpoint: 2.0°C ( 36°F) [RH = 93%]
Pressure (altimeter):30.30 inches Hg (1026.2 mb)
Winds:from the NNW (340 degrees) at 10 MPH (9 knots; 4.6 m/s) gusting to 18 MPH (16 knots; 8.2 m/s)
Visibility: 0.75 sm ( 1.21 km)
Ceiling:100 feet AGL
Clouds: overcast cloud deck at 100 feet AGL
Weather:BR (mist)
QC Flag:automated observation with no human augmentation
Text:KMNH 240512Z AUTO 35015KT 1 3/4SM BR OVC001 03/03 A3028 RMK AO2 VIS 1/2V4
Temperature: 3.0°C ( 37°F)
Dewpoint: 3.0°C ( 37°F) [RH = 100%]
Pressure (altimeter):30.28 inches Hg (1025.5 mb)
Winds:from the N (350 degrees) at 17 MPH (15 knots; 7.7 m/s)
Visibility: 1.75 sm ( 2.82 km)
Ceiling:100 feet AGL
Clouds: overcast cloud deck at 100 feet AGL
Weather:BR (mist)
QC Flag:automated observation with no human augmentation
Text:KMNH 240453Z AUTO 36014G20KT 7SM BKN003 OVC007 04/03 A3025 RMK AO2
Temperature: 4.0°C ( 39°F)
Dewpoint: 3.0°C ( 37°F) [RH = 93%]
Pressure (altimeter):30.25 inches Hg (1024.5 mb)
Winds:from the N (360 degrees) at 16 MPH (14 knots; 7.2 m/s) gusting to 23 MPH (20 knots; 10.3 m/s)
Visibility: 7 sm ( 11 km)
Ceiling:300 feet AGL
Clouds: broken clouds at 300 feet AGL, overcast cloud deck at 700 feet AGL
QC Flag:automated observation with no human augmentation
Text:KMNH 240429Z AUTO 36017G22KT 10SM SCT007 BKN075 OVC110 06/05 A3024 RMK AO2
Temperature: 6.0°C ( 43°F)
Dewpoint: 5.0°C ( 41°F) [RH = 93%]
Pressure (altimeter):30.24 inches Hg (1024.1 mb)
Winds:from the N (360 degrees) at 20 MPH (17 knots; 8.7 m/s) gusting to 25 MPH (22 knots; 11.3 m/s)
Visibility:10 or more sm (16+ km)
Ceiling:7500 feet AGL
Clouds: scattered clouds at 700 feet AGL, broken clouds at 7500 feet AGL, overcast cloud deck at 11000 feet AGL
QC Flag:automated observation with no human augmentation
Text:KMNH 240411Z AUTO 36016G21KT 10SM BKN075 BKN090 BKN120 07/04 A3021 RMK AO2
Temperature: 7.0°C ( 45°F)
Dewpoint: 4.0°C ( 39°F) [RH = 81%]
Pressure (altimeter):30.21 inches Hg (1023.1 mb)
Winds:from the N (360 degrees) at 18 MPH (16 knots; 8.2 m/s) gusting to 24 MPH (21 knots; 10.8 m/s)
Visibility:10 or more sm (16+ km)
Ceiling:7500 feet AGL
Clouds: broken clouds at 7500 feet AGL, broken clouds at 9000 feet AGL, broken clouds at 12000 feet AGL
QC Flag:automated observation with no human augmentation
Text:KMNH 240352Z AUTO 01004KT 10SM SCT085 06/02 A3018 RMK AO2
Temperature: 6.0°C ( 43°F)
Dewpoint: 2.0°C ( 36°F) [RH = 75%]
Pressure (altimeter):30.18 inches Hg (1022.1 mb)
Winds:from the N (10 degrees) at 5 MPH (4 knots; 2.1 m/s)
Visibility:10 or more sm (16+ km)
Ceiling:at least 12,000 feet AGL
Clouds: scattered clouds at 8500 feet AGL
QC Flag:automated observation with no human augmentation
Text:KMNH 240330Z AUTO 14006KT 10SM CLR 07/01 A3017 RMK AO2
Temperature: 7.0°C ( 45°F)
Dewpoint: 1.0°C ( 34°F) [RH = 66%]
Pressure (altimeter):30.17 inches Hg (1021.8 mb)
Winds:from the SE (140 degrees) at 7 MPH (6 knots; 3.1 m/s)
Visibility:10 or more sm (16+ km)
Ceiling:at least 12,000 feet AGL
Clouds:sky clear below 12,000 feet AGL
QC Flag:automated observation with no human augmentation
Text:KMNH 240312Z AUTO 15007KT 10SM CLR 07/01 A3016 RMK AO2
Temperature: 7.0°C ( 45°F)
Dewpoint: 1.0°C ( 34°F) [RH = 66%]
Pressure (altimeter):30.16 inches Hg (1021.4 mb)
Winds:from the SSE (150 degrees) at 8 MPH (7 knots; 3.6 m/s)
Visibility:10 or more sm (16+ km)
Ceiling:at least 12,000 feet AGL
Clouds:sky clear below 12,000 feet AGL
QC Flag:automated observation with no human augmentation
Text:KMNH 240253Z AUTO 17007KT 10SM CLR 08/01 A3015 RMK AO2
Temperature: 8.0°C ( 46°F)
Dewpoint: 1.0°C ( 34°F) [RH = 61%]
Pressure (altimeter):30.15 inches Hg (1021.1 mb)
Winds:from the S (170 degrees) at 8 MPH (7 knots; 3.6 m/s)
Visibility:10 or more sm (16+ km)
Ceiling:at least 12,000 feet AGL
Clouds:sky clear below 12,000 feet AGL
QC Flag:automated observation with no human augmentation
Text:KMNH 240230Z AUTO 16008KT 10SM CLR 08/02 A3014 RMK AO2
Temperature: 8.0°C ( 46°F)
Dewpoint: 2.0°C ( 36°F) [RH = 66%]
Pressure (altimeter):30.14 inches Hg (1020.7 mb)
Winds:from the SSE (160 degrees) at 9 MPH (8 knots; 4.1 m/s)
Visibility:10 or more sm (16+ km)
Ceiling:at least 12,000 feet AGL
Clouds:sky clear below 12,000 feet AGL
QC Flag:automated observation with no human augmentation
Text:KMNH 240212Z AUTO 17008KT 10SM CLR 08/02 A3012 RMK AO2 LTG DSNT NE
Temperature: 8.0°C ( 46°F)
Dewpoint: 2.0°C ( 36°F) [RH = 66%]
Pressure (altimeter):30.12 inches Hg (1020.1 mb)
Winds:from the S (170 degrees) at 9 MPH (8 knots; 4.1 m/s)
Visibility:10 or more sm (16+ km)
Ceiling:at least 12,000 feet AGL
Clouds:sky clear below 12,000 feet AGL
QC Flag:automated observation with no human augmentation
Text:KMNH 240149Z AUTO 17007KT 10SM CLR 09/02 A3012 RMK AO2
Temperature: 9.0°C ( 48°F)
Dewpoint: 2.0°C ( 36°F) [RH = 61%]
Pressure (altimeter):30.12 inches Hg (1020.1 mb)
Winds:from the S (170 degrees) at 8 MPH (7 knots; 3.6 m/s)
Visibility:10 or more sm (16+ km)
Ceiling:at least 12,000 feet AGL
Clouds:sky clear below 12,000 feet AGL
QC Flag:automated observation with no human augmentation
Text:KMNH 240131Z AUTO 16008KT 10SM CLR 10/02 A3011 RMK AO2 LTG DSNT N
Temperature: 10.0°C ( 50°F)
Dewpoint: 2.0°C ( 36°F) [RH = 57%]
Pressure (altimeter):30.11 inches Hg (1019.7 mb)
Winds:from the SSE (160 degrees) at 9 MPH (8 knots; 4.1 m/s)
Visibility:10 or more sm (16+ km)
Ceiling:at least 12,000 feet AGL
Clouds:sky clear below 12,000 feet AGL
QC Flag:automated observation with no human augmentation
Text:KMNH 240113Z AUTO 17007KT 10SM CLR 10/02 A3010 RMK AO2 LTG DSNT N
Temperature: 10.0°C ( 50°F)
Dewpoint: 2.0°C ( 36°F) [RH = 57%]
Pressure (altimeter):30.10 inches Hg (1019.4 mb)
Winds:from the S (170 degrees) at 8 MPH (7 knots; 3.6 m/s)
Visibility:10 or more sm (16+ km)
Ceiling:at least 12,000 feet AGL
Clouds:sky clear below 12,000 feet AGL
QC Flag:automated observation with no human augmentation
Text:KMNH 240050Z AUTO 17008KT 10SM SCT110 12/03 A3010 RMK AO2
Temperature: 12.0°C ( 54°F)
Dewpoint: 3.0°C ( 37°F) [RH = 54%]
Pressure (altimeter):30.10 inches Hg (1019.4 mb)
Winds:from the S (170 degrees) at 9 MPH (8 knots; 4.1 m/s)
Visibility:10 or more sm (16+ km)
Ceiling:at least 12,000 feet AGL
Clouds: scattered clouds at 11000 feet AGL
QC Flag:automated observation with no human augmentation
Text:KMNH 240032Z AUTO 14006KT 10SM SCT110 13/03 A3010 RMK AO2
Temperature: 13.0°C ( 55°F)
Dewpoint: 3.0°C ( 37°F) [RH = 51%]
Pressure (altimeter):30.10 inches Hg (1019.4 mb)
Winds:from the SE (140 degrees) at 7 MPH (6 knots; 3.1 m/s)
Visibility:10 or more sm (16+ km)
Ceiling:at least 12,000 feet AGL
Clouds: scattered clouds at 11000 feet AGL
QC Flag:automated observation with no human augmentation
Text:KMNH 240012Z AUTO 08005KT 10SM SCT100 12/04 A3010 RMK AO2
Temperature: 12.0°C ( 54°F)
Dewpoint: 4.0°C ( 39°F) [RH = 58%]
Pressure (altimeter):30.10 inches Hg (1019.4 mb)
Winds:from the E (80 degrees) at 6 MPH (5 knots; 2.6 m/s)
Visibility:10 or more sm (16+ km)
Ceiling:at least 12,000 feet AGL
Clouds: scattered clouds at 10000 feet AGL
QC Flag:automated observation with no human augmentation
Text:KMNH 232349Z AUTO 14004KT 10SM CLR 12/03 A3010 RMK AO2
Temperature: 12.0°C ( 54°F)
Dewpoint: 3.0°C ( 37°F) [RH = 54%]
Pressure (altimeter):30.10 inches Hg (1019.4 mb)
Winds:from the SE (140 degrees) at 5 MPH (4 knots; 2.1 m/s)
Visibility:10 or more sm (16+ km)
Ceiling:at least 12,000 feet AGL
Clouds:sky clear below 12,000 feet AGL
QC Flag:automated observation with no human augmentation
Text:KMNH 232330Z AUTO 15005KT 10SM CLR 12/04 A3010 RMK AO2 LTG DSNT N
Temperature: 12.0°C ( 54°F)
Dewpoint: 4.0°C ( 39°F) [RH = 58%]
Pressure (altimeter):30.10 inches Hg (1019.4 mb)
Winds:from the SSE (150 degrees) at 6 MPH (5 knots; 2.6 m/s)
Visibility:10 or more sm (16+ km)
Ceiling:at least 12,000 feet AGL
Clouds:sky clear below 12,000 feet AGL
QC Flag:automated observation with no human augmentation
Text:KMNH 232311Z AUTO 16003KT 10SM CLR 11/04 A3011 RMK AO2
Temperature: 11.0°C ( 52°F)
Dewpoint: 4.0°C ( 39°F) [RH = 62%]
Pressure (altimeter):30.11 inches Hg (1019.7 mb)
Winds:from the SSE (160 degrees) at 3 MPH (3 knots; 1.5 m/s)
Visibility:10 or more sm (16+ km)
Ceiling:at least 12,000 feet AGL
Clouds:sky clear below 12,000 feet AGL
QC Flag:automated observation with no human augmentation
Text:KMNH 232252Z AUTO 07006G19KT 5SM -RA SCT012 SCT022 BKN033 11/05 A3010 RMK AO2 LTG DSNT NE P0002
Temperature: 11.0°C ( 52°F)
Dewpoint: 5.0°C ( 41°F) [RH = 66%]
Pressure (altimeter):30.10 inches Hg (1019.4 mb)
Winds:from the ENE (70 degrees) at 7 MPH (6 knots; 3.1 m/s) gusting to 22 MPH (19 knots; 9.8 m/s)
Visibility: 5 sm ( 8 km)
Ceiling:3300 feet AGL
Clouds: scattered clouds at 1200 feet AGL, scattered clouds at 2200 feet AGL, broken clouds at 3300 feet AGL
Weather:-RA (light rain)
QC Flag:automated observation with no human augmentation
Text:KMNH 232229Z AUTO 19012G18KT 10SM BKN075 BKN095 OVC110 13/01 A3012 RMK AO2
Temperature: 13.0°C ( 55°F)
Dewpoint: 1.0°C ( 34°F) [RH = 44%]
Pressure (altimeter):30.12 inches Hg (1020.1 mb)
Winds:from the S (190 degrees) at 14 MPH (12 knots; 6.2 m/s) gusting to 21 MPH (18 knots; 9.3 m/s)
Visibility:10 or more sm (16+ km)
Ceiling:7500 feet AGL
Clouds: broken clouds at 7500 feet AGL, broken clouds at 9500 feet AGL, overcast cloud deck at 11000 feet AGL
QC Flag:automated observation with no human augmentation